Time;durP1;ratioP1;P1;durP2;ratioP2;P2;SDS_P1;SDS_P2;PMS_P1;PMS_P2;Temp;Humidity;BMP_temperature;BMP_pressure;BME280_temperature;BME280_humidity;BME280_pressure;Samples;Min_cycle;Max_cycle;Signal;HPM_P1;HPM_P2
2024/03/10 00:00:24;;;;;;;1.48;0.77;;;;;;;;;;5003279;28;20469;-59
2024/03/10 00:02:52;;;;;;;0.70;0.70;;;;;;;;;;5008582;28;20049;-60
2024/03/10 00:05:22;;;;;;;0.75;0.65;;;;;;;;;;5002917;28;20046;-58
2024/03/10 00:07:52;;;;;;;0.95;0.77;;;;;;;;;;5003163;28;20460;-59
2024/03/10 00:10:21;;;;;;;0.80;0.70;;;;;;;;;;5052901;28;20053;-61
2024/03/10 00:12:50;;;;;;;0.73;0.70;;;;;;;;;;5049589;28;20053;-58
2024/03/10 00:15:19;;;;;;;0.60;0.60;;;;;;;;;;5044644;28;20494;-58
2024/03/10 00:17:48;;;;;;;1.67;0.60;;;;;;;;;;5047041;28;20041;-60
2024/03/10 00:20:19;;;;;;;2.38;0.60;;;;;;;;;;5039522;28;20128;-59
2024/03/10 00:22:48;;;;;;;0.52;0.52;;;;;;;;;;5048287;28;20132;-59
2024/03/10 00:25:21;;;;;;;0.60;0.50;;;;;;;;;;5047783;28;20486;-60
2024/03/10 00:27:50;;;;;;;0.52;0.50;;;;;;;;;;5046812;28;20049;-58
2024/03/10 00:30:19;;;;;;;0.47;0.47;;;;;;;;;;5040756;28;20081;-60
2024/03/10 00:32:47;;;;;;;0.50;0.50;;;;;;;;;;5047013;28;20125;-58
2024/03/10 00:35:16;;;;;;;0.73;0.73;;;;;;;;;;5040554;28;20085;-60
2024/03/10 00:37:45;;;;;;;0.60;0.50;;;;;;;;;;5051335;28;20076;-59
2024/03/10 00:40:15;;;;;;;0.40;0.40;;;;;;;;;;5065355;28;20049;-58
2024/03/10 00:42:45;;;;;;;0.45;0.45;;;;;;;;;;5069745;28;20053;-60
2024/03/10 00:45:14;;;;;;;0.60;0.40;;;;;;;;;;5060666;28;20105;-60
2024/03/10 00:47:42;;;;;;;0.40;0.40;;;;;;;;;;5066784;28;20088;-60
2024/03/10 00:50:11;;;;;;;0.40;0.40;;;;;;;;;;5047122;28;20098;-59
2024/03/10 00:52:40;;;;;;;0.50;0.50;;;;;;;;;;5052093;28;20079;-58
2024/03/10 00:55:11;;;;;;;0.40;0.40;;;;;;;;;;5053119;28;20056;-59
2024/03/10 00:57:40;;;;;;;0.52;0.40;;;;;;;;;;5055165;28;20130;-58
2024/03/10 01:00:11;;;;;;;0.65;0.50;;;;;;;;;;5039334;28;20456;-59
2024/03/10 01:02:40;;;;;;;0.50;0.50;;;;;;;;;;5047407;28;20094;-60
2024/03/10 01:05:09;;;;;;;0.40;0.40;;;;;;;;;;5045118;28;20102;-58
2024/03/10 01:07:38;;;;;;;0.40;0.40;;;;;;;;;;5051785;28;20079;-60
2024/03/10 01:10:07;;;;;;;0.40;0.40;;;;;;;;;;5045545;28;20498;-60
2024/03/10 01:12:36;;;;;;;0.40;0.40;;;;;;;;;;5047324;28;20337;-62
2024/03/10 01:15:05;;;;;;;0.60;0.60;;;;;;;;;;5047389;28;20130;-60
2024/03/10 01:17:35;;;;;;;0.50;0.50;;;;;;;;;;5054467;28;20421;-59
2024/03/10 01:20:06;;;;;;;0.60;0.50;;;;;;;;;;5054693;28;20041;-61
2024/03/10 01:22:35;;;;;;;0.73;0.50;;;;;;;;;;5050133;28;20144;-58
2024/03/10 01:25:04;;;;;;;0.40;0.40;;;;;;;;;;5051113;28;20041;-60
2024/03/10 01:27:32;;;;;;;0.77;0.50;;;;;;;;;;5061246;28;20049;-59
2024/03/10 01:30:02;;;;;;;0.50;0.50;;;;;;;;;;5051342;28;20216;-58
2024/03/10 01:32:31;;;;;;;0.50;0.50;;;;;;;;;;5048831;28;20048;-59
2024/03/10 01:35:01;;;;;;;0.40;0.40;;;;;;;;;;5044916;28;20608;-58
2024/03/10 01:37:30;;;;;;;0.50;0.50;;;;;;;;;;5051189;28;20532;-58
2024/03/10 01:39:59;;;;;;;0.50;0.50;;;;;;;;;;5048555;28;20052;-58
2024/03/10 01:42:27;;;;;;;0.55;0.50;;;;;;;;;;5052720;28;20422;-58
2024/03/10 01:44:56;;;;;;;0.50;0.50;;;;;;;;;;5050500;28;20053;-62
2024/03/10 01:47:24;;;;;;;0.52;0.50;;;;;;;;;;5053982;28;20057;-60
2024/03/10 01:49:53;;;;;;;0.40;0.40;;;;;;;;;;5051246;28;20052;-58
2024/03/10 01:52:23;;;;;;;0.40;0.40;;;;;;;;;;5044991;28;20068;-58
2024/03/10 01:54:52;;;;;;;0.50;0.50;;;;;;;;;;5058392;28;20051;-59
2024/03/10 01:57:21;;;;;;;0.80;0.57;;;;;;;;;;5053496;28;20072;-59
2024/03/10 01:59:50;;;;;;;0.85;0.47;;;;;;;;;;5058297;28;20126;-61
2024/03/10 02:02:19;;;;;;;0.70;0.70;;;;;;;;;;5064802;28;20073;-59
2024/03/10 02:04:48;;;;;;;0.50;0.50;;;;;;;;;;5062278;28;20128;-58
2024/03/10 02:07:16;;;;;;;0.60;0.60;;;;;;;;;;5066220;28;20044;-59
2024/03/10 02:09:47;;;;;;;0.52;0.50;;;;;;;;;;5072442;28;20044;-58
2024/03/10 02:12:16;;;;;;;0.50;0.50;;;;;;;;;;5069765;28;20538;-63
2024/03/10 02:14:57;;;;;;;0.40;0.40;;;;;;;;;;5069197;28;20058;-60
2024/03/10 02:17:26;;;;;;;0.70;0.50;;;;;;;;;;5064262;28;20048;-59
2024/03/10 02:19:56;;;;;;;1.02;0.60;;;;;;;;;;5069397;28;20135;-59
2024/03/10 02:22:26;;;;;;;0.50;0.50;;;;;;;;;;5065980;28;20048;-60
2024/03/10 02:24:57;;;;;;;0.60;0.60;;;;;;;;;;5065579;28;20049;-59
2024/03/10 02:27:28;;;;;;;0.75;0.65;;;;;;;;;;5061022;28;20044;-59
2024/03/10 02:30:18;;;;;;;0.73;0.55;;;;;;;;;;5071138;28;20051;-58
2024/03/10 02:49:27;;;;;;;0.80;0.55;;;;;;;;;;5060495;28;20049;-58
2024/03/10 02:51:55;;;;;;;0.50;0.50;;;;;;;;;;5065122;28;20068;-57
2024/03/10 02:54:24;;;;;;;0.57;0.57;;;;;;;;;;5069563;28;20108;-60
2024/03/10 02:56:52;;;;;;;0.45;0.45;;;;;;;;;;5068062;28;20056;-58
2024/03/10 02:59:22;;;;;;;0.68;0.60;;;;;;;;;;5062167;28;20516;-57
2024/03/10 03:01:50;;;;;;;0.60;0.60;;;;;;;;;;5047493;28;20084;-61
2024/03/10 03:04:19;;;;;;;0.50;0.40;;;;;;;;;;5034923;28;20132;-59
2024/03/10 03:06:47;;;;;;;1.42;0.52;;;;;;;;;;5046222;28;20206;-59
2024/03/10 03:09:16;;;;;;;0.50;0.50;;;;;;;;;;5059040;28;20068;-58
2024/03/10 03:11:45;;;;;;;0.50;0.50;;;;;;;;;;5064477;28;20053;-59
2024/03/10 03:14:14;;;;;;;0.93;0.60;;;;;;;;;;5067864;28;20048;-60
2024/03/10 03:16:44;;;;;;;0.47;0.47;;;;;;;;;;5062831;28;20052;-62
2024/03/10 03:19:13;;;;;;;0.50;0.50;;;;;;;;;;5069049;28;20045;-59
2024/03/10 03:21:42;;;;;;;0.63;0.50;;;;;;;;;;5066468;28;20045;-58
2024/03/10 03:24:13;;;;;;;0.73;0.73;;;;;;;;;;5068057;28;20048;-58
2024/03/10 03:26:42;;;;;;;0.60;0.60;;;;;;;;;;5065602;28;20051;-59
2024/03/10 03:29:11;;;;;;;0.80;0.60;;;;;;;;;;5068609;28;20145;-59
2024/03/10 03:31:39;;;;;;;1.33;0.70;;;;;;;;;;5065490;28;20068;-58
2024/03/10 03:34:09;;;;;;;1.88;0.60;;;;;;;;;;5068773;28;20431;-58
2024/03/10 03:36:38;;;;;;;0.70;0.55;;;;;;;;;;5066259;28;20040;-58
2024/03/10 03:39:09;;;;;;;0.70;0.70;;;;;;;;;;5060784;28;20067;-60
2024/03/10 03:41:38;;;;;;;0.57;0.50;;;;;;;;;;5049271;28;20543;-59
2024/03/10 03:44:07;;;;;;;0.60;0.50;;;;;;;;;;5039822;28;20134;-59
2024/03/10 03:46:35;;;;;;;0.82;0.55;;;;;;;;;;5046120;28;20068;-58
2024/03/10 03:49:04;;;;;;;0.70;0.60;;;;;;;;;;5051366;28;20045;-58
2024/03/10 03:51:34;;;;;;;0.55;0.55;;;;;;;;;;5044309;28;20145;-59
2024/03/10 03:54:05;;;;;;;0.50;0.50;;;;;;;;;;5040497;28;20541;-60
2024/03/10 03:56:34;;;;;;;0.60;0.60;;;;;;;;;;5053503;28;20096;-59
2024/03/10 03:59:03;;;;;;;0.63;0.60;;;;;;;;;;5043702;28;20502;-58
2024/03/10 04:01:34;;;;;;;0.60;0.57;;;;;;;;;;5052919;28;20048;-59
2024/03/10 04:04:03;;;;;;;0.57;0.57;;;;;;;;;;5041632;28;20498;-60
2024/03/10 04:06:31;;;;;;;0.43;0.43;;;;;;;;;;5039177;28;20065;-62
2024/03/10 04:09:02;;;;;;;0.50;0.47;;;;;;;;;;5043426;28;20073;-58
2024/03/10 04:11:31;;;;;;;0.60;0.60;;;;;;;;;;5050364;28;20056;-60
2024/03/10 04:14:00;;;;;;;0.57;0.50;;;;;;;;;;5050508;28;20060;-58
2024/03/10 04:16:29;;;;;;;0.95;0.60;;;;;;;;;;5051007;28;20053;-59
2024/03/10 04:18:58;;;;;;;1.08;0.60;;;;;;;;;;5055896;28;20102;-61
2024/03/10 04:21:28;;;;;;;0.50;0.50;;;;;;;;;;5072174;28;20045;-58
2024/03/10 04:23:56;;;;;;;0.45;0.45;;;;;;;;;;5066371;28;20074;-58
2024/03/10 04:26:27;;;;;;;0.47;0.47;;;;;;;;;;5071676;28;20064;-60
2024/03/10 04:28:56;;;;;;;1.02;0.60;;;;;;;;;;5071040;28;20063;-60
2024/03/10 04:31:25;;;;;;;0.40;0.40;;;;;;;;;;5070595;28;20044;-60
2024/03/10 04:33:53;;;;;;;0.50;0.50;;;;;;;;;;5072682;28;20071;-58
2024/03/10 04:36:22;;;;;;;0.47;0.45;;;;;;;;;;5068381;28;20055;-58
2024/03/10 04:38:51;;;;;;;0.77;0.60;;;;;;;;;;5067675;28;20134;-62
2024/03/10 04:41:20;;;;;;;0.50;0.50;;;;;;;;;;5064405;28;20489;-59
2024/03/10 04:43:51;;;;;;;1.00;0.60;;;;;;;;;;5069492;28;20456;-61
2024/03/10 04:46:19;;;;;;;0.50;0.50;;;;;;;;;;5062628;28;20049;-59
2024/03/10 04:48:50;;;;;;;0.60;0.60;;;;;;;;;;5066662;28;20102;-60
2024/03/10 04:51:18;;;;;;;0.50;0.50;;;;;;;;;;5050022;28;20041;-60
2024/03/10 04:53:47;;;;;;;0.60;0.60;;;;;;;;;;5050210;28;20064;-61
2024/03/10 04:56:16;;;;;;;0.73;0.50;;;;;;;;;;5053187;28;20080;-59
2024/03/10 04:58:45;;;;;;;0.60;0.60;;;;;;;;;;5054149;28;20852;-58
2024/03/10 05:01:19;;;;;;;0.47;0.45;;;;;;;;;;5070331;28;20041;-58
2024/03/10 05:03:50;;;;;;;0.70;0.50;;;;;;;;;;5064581;28;20044;-61
2024/03/10 05:06:18;;;;;;;0.50;0.50;;;;;;;;;;5070358;28;20104;-61
2024/03/10 05:08:47;;;;;;;0.80;0.50;;;;;;;;;;5063605;28;20460;-60
2024/03/10 05:11:15;;;;;;;0.95;0.63;;;;;;;;;;5055676;28;20080;-60
2024/03/10 05:13:44;;;;;;;0.85;0.60;;;;;;;;;;5049484;28;20054;-61
2024/03/10 05:16:16;;;;;;;0.88;0.70;;;;;;;;;;5051541;28;20056;-60
2024/03/10 05:18:44;;;;;;;0.93;0.60;;;;;;;;;;5046918;28;20528;-59
2024/03/10 05:21:13;;;;;;;0.50;0.50;;;;;;;;;;5048148;28;20049;-61
2024/03/10 05:23:41;;;;;;;2.33;0.50;;;;;;;;;;5047134;28;20049;-59
2024/03/10 05:26:09;;;;;;;0.60;0.60;;;;;;;;;;5045335;28;20049;-59
2024/03/10 05:28:38;;;;;;;0.60;0.60;;;;;;;;;;5056136;28;20048;-60
2024/03/10 05:31:26;;;;;;;0.50;0.50;;;;;;;;;;5069516;28;20051;-60
2024/03/10 05:33:57;;;;;;;1.25;0.70;;;;;;;;;;5070306;28;20044;-58
2024/03/10 05:36:26;;;;;;;0.50;0.50;;;;;;;;;;5068889;28;20060;-60
2024/03/10 05:38:54;;;;;;;0.65;0.60;;;;;;;;;;5073971;28;20044;-60
2024/03/10 05:41:23;;;;;;;0.52;0.52;;;;;;;;;;5070824;28;20127;-62
2024/03/10 05:43:51;;;;;;;0.50;0.50;;;;;;;;;;5070719;28;20045;-59
2024/03/10 05:46:20;;;;;;;0.50;0.50;;;;;;;;;;5070355;28;20127;-58
2024/03/10 05:48:48;;;;;;;0.40;0.40;;;;;;;;;;5058490;28;20057;-59
2024/03/10 05:51:18;;;;;;;0.50;0.50;;;;;;;;;;5070151;28;20117;-60
2024/03/10 05:53:46;;;;;;;0.60;0.60;;;;;;;;;;5067201;28;20113;-59
2024/03/10 05:56:15;;;;;;;0.60;0.50;;;;;;;;;;5064174;28;20137;-59
2024/03/10 05:58:44;;;;;;;0.63;0.50;;;;;;;;;;5065909;28;20044;-59
2024/03/10 06:01:15;;;;;;;1.13;0.45;;;;;;;;;;5068597;28;20485;-59
2024/03/10 06:03:44;;;;;;;0.82;0.68;;;;;;;;;;5059117;28;20044;-60
2024/03/10 06:06:13;;;;;;;0.47;0.47;;;;;;;;;;5066970;28;20049;-60
2024/03/10 06:08:43;;;;;;;0.60;0.55;;;;;;;;;;5062619;28;20065;-59
2024/03/10 06:11:12;;;;;;;0.55;0.55;;;;;;;;;;5071076;28;20098;-59
2024/03/10 06:13:42;;;;;;;2.47;0.70;;;;;;;;;;5065233;28;20175;-61
2024/03/10 06:16:11;;;;;;;0.63;0.63;;;;;;;;;;5068148;28;20047;-58
2024/03/10 06:26:55;;;;;;;0.52;0.50;;;;;;;;;;5064886;28;20106;-60
2024/03/10 06:29:24;;;;;;;0.50;0.50;;;;;;;;;;5067776;28;20625;-59
2024/03/10 06:31:55;;;;;;;1.08;0.70;;;;;;;;;;5069862;28;20067;-61
2024/03/10 06:34:24;;;;;;;0.60;0.60;;;;;;;;;;5068222;28;20568;-60
2024/03/10 06:36:53;;;;;;;1.35;0.73;;;;;;;;;;5069557;28;20083;-59
2024/03/10 06:39:24;;;;;;;0.57;0.57;;;;;;;;;;5061728;28;20045;-60
2024/03/10 06:41:52;;;;;;;0.52;0.50;;;;;;;;;;5071991;28;20102;-59
2024/03/10 06:44:21;;;;;;;1.05;0.60;;;;;;;;;;5070303;28;20137;-58
2024/03/10 06:46:50;;;;;;;0.73;0.68;;;;;;;;;;5069534;28;20082;-59
2024/03/10 06:49:19;;;;;;;0.57;0.57;;;;;;;;;;5061796;28;20048;-59
2024/03/10 06:51:47;;;;;;;0.70;0.50;;;;;;;;;;5058642;28;20049;-59
2024/03/10 06:54:15;;;;;;;1.73;0.50;;;;;;;;;;5067361;28;20086;-59
2024/03/10 06:56:45;;;;;;;1.05;0.50;;;;;;;;;;5071267;28;20476;-63
2024/03/10 06:59:13;;;;;;;0.40;0.40;;;;;;;;;;5055175;28;20169;-60
2024/03/10 07:01:44;;;;;;;0.40;0.40;;;;;;;;;;5077433;28;20068;-60
2024/03/10 07:04:14;;;;;;;0.50;0.50;;;;;;;;;;5064268;28;20052;-62
2024/03/10 07:06:42;;;;;;;0.50;0.50;;;;;;;;;;5065846;28;20037;-59
2024/03/10 07:09:10;;;;;;;0.50;0.50;;;;;;;;;;5062774;28;20346;-60
2024/03/10 07:11:43;;;;;;;0.63;0.63;;;;;;;;;;5069878;28;20508;-61
2024/03/10 07:14:14;;;;;;;0.70;0.70;;;;;;;;;;5070123;28;20089;-59
2024/03/10 07:16:46;;;;;;;1.33;0.88;;;;;;;;;;5065861;28;20053;-61
2024/03/10 07:19:16;;;;;;;0.70;0.70;;;;;;;;;;5067394;28;20040;-60
2024/03/10 07:21:45;;;;;;;1.48;0.90;;;;;;;;;;5074188;28;20052;-59
2024/03/10 07:24:13;;;;;;;1.10;0.80;;;;;;;;;;5067854;28;20398;-61
2024/03/10 07:26:42;;;;;;;1.50;1.08;;;;;;;;;;5067153;28;20537;-59
2024/03/10 07:29:11;;;;;;;0.80;0.77;;;;;;;;;;5067130;28;20052;-63
2024/03/10 07:31:40;;;;;;;0.88;0.77;;;;;;;;;;5062891;28;20302;-60
2024/03/10 07:34:09;;;;;;;1.70;0.95;;;;;;;;;;5068215;28;20397;-58
2024/03/10 07:36:37;;;;;;;3.58;1.02;;;;;;;;;;5061295;28;20119;-60
2024/03/10 07:39:07;;;;;;;1.25;1.05;;;;;;;;;;5067546;28;20048;-59
2024/03/10 07:41:35;;;;;;;1.90;1.10;;;;;;;;;;5063817;28;20054;-60
2024/03/10 07:44:04;;;;;;;2.70;1.05;;;;;;;;;;5067672;28;20041;-59
2024/03/10 07:46:32;;;;;;;0.80;0.80;;;;;;;;;;5069719;28;20077;-58
2024/03/10 07:49:02;;;;;;;1.77;1.15;;;;;;;;;;5063783;28;20120;-58
2024/03/10 07:51:31;;;;;;;3.47;1.60;;;;;;;;;;5058810;28;20052;-61
2024/03/10 07:54:01;;;;;;;2.17;1.48;;;;;;;;;;5049318;28;20072;-61
2024/03/10 07:56:29;;;;;;;2.72;1.55;;;;;;;;;;5058274;28;20067;-61
2024/03/10 07:59:00;;;;;;;1.98;1.20;;;;;;;;;;5060869;28;20113;-58
2024/03/10 08:01:29;;;;;;;1.90;1.05;;;;;;;;;;5056302;28;20045;-59
2024/03/10 08:03:58;;;;;;;2.17;1.35;;;;;;;;;;5062401;28;20053;-60
2024/03/10 08:06:28;;;;;;;1.58;1.20;;;;;;;;;;5066038;28;20086;-60
2024/03/10 08:08:56;;;;;;;1.52;1.00;;;;;;;;;;5071778;28;20526;-60
2024/03/10 08:11:24;;;;;;;1.83;1.10;;;;;;;;;;5067018;28;20639;-59
2024/03/10 08:13:53;;;;;;;1.10;0.90;;;;;;;;;;5064834;28;20072;-59
2024/03/10 08:16:21;;;;;;;1.15;0.80;;;;;;;;;;5068510;28;20378;-61
2024/03/10 08:18:50;;;;;;;1.73;1.13;;;;;;;;;;5074237;28;20044;-60
2024/03/10 08:21:19;;;;;;;0.85;0.82;;;;;;;;;;5069521;28;20471;-61
2024/03/10 08:23:49;;;;;;;1.13;0.90;;;;;;;;;;5074618;28;20209;-59
2024/03/10 08:26:17;;;;;;;2.60;1.05;;;;;;;;;;5065640;28;20052;-61
2024/03/10 08:28:46;;;;;;;1.40;1.00;;;;;;;;;;5069063;28;20049;-59
2024/03/10 08:31:16;;;;;;;1.25;1.00;;;;;;;;;;5069467;28;20048;-60
2024/03/10 08:33:44;;;;;;;1.88;0.85;;;;;;;;;;5071672;28;20059;-60
2024/03/10 08:36:13;;;;;;;2.20;0.85;;;;;;;;;;5077282;28;20056;-60
2024/03/10 08:38:41;;;;;;;0.95;0.82;;;;;;;;;;5076646;28;20048;-59
2024/03/10 08:41:11;;;;;;;1.13;0.90;;;;;;;;;;5065702;28;20134;-61
2024/03/10 08:43:40;;;;;;;1.30;1.00;;;;;;;;;;5076871;28;20050;-63
2024/03/10 08:46:11;;;;;;;1.38;1.15;;;;;;;;;;5063888;28;20536;-61
2024/03/10 08:48:40;;;;;;;1.15;0.85;;;;;;;;;;5068829;28;20489;-59
2024/03/10 08:51:08;;;;;;;1.02;0.82;;;;;;;;;;5072875;28;20509;-60
2024/03/10 08:53:37;;;;;;;1.25;1.00;;;;;;;;;;5072473;28;20075;-59
2024/03/10 08:56:07;;;;;;;1.52;0.80;;;;;;;;;;5071486;28;20217;-60
2024/03/10 08:58:37;;;;;;;1.45;0.98;;;;;;;;;;5066746;28;20314;-60
2024/03/10 09:01:06;;;;;;;1.13;0.90;;;;;;;;;;5046425;28;20454;-59
2024/03/10 09:03:35;;;;;;;1.08;0.90;;;;;;;;;;5048752;28;20063;-59
2024/03/10 09:06:04;;;;;;;1.58;0.73;;;;;;;;;;5045393;28;20425;-59
2024/03/10 09:08:33;;;;;;;1.08;0.90;;;;;;;;;;5061897;28;20065;-62
2024/03/10 09:11:06;;;;;;;0.90;0.80;;;;;;;;;;5062449;28;20033;-60
2024/03/10 09:13:35;;;;;;;2.72;0.88;;;;;;;;;;5073748;28;20048;-59
2024/03/10 09:16:08;;;;;;;0.80;0.77;;;;;;;;;;5065996;28;20048;-60
2024/03/10 09:18:37;;;;;;;0.75;0.75;;;;;;;;;;5067774;28;20087;-61
2024/03/10 09:21:07;;;;;;;1.10;0.88;;;;;;;;;;5077081;28;20571;-60
2024/03/10 09:23:36;;;;;;;1.20;0.90;;;;;;;;;;5072877;28;20040;-60
2024/03/10 09:26:06;;;;;;;3.25;1.23;;;;;;;;;;5071341;28;20041;-60
2024/03/10 09:28:36;;;;;;;1.00;0.80;;;;;;;;;;5071651;28;20502;-60
2024/03/10 09:31:07;;;;;;;0.88;0.77;;;;;;;;;;5045968;28;20046;-60
2024/03/10 09:33:38;;;;;;;1.20;0.90;;;;;;;;;;5050427;28;20064;-60
2024/03/10 09:36:06;;;;;;;1.13;0.80;;;;;;;;;;5036561;28;20046;-59
2024/03/10 09:38:35;;;;;;;0.90;0.70;;;;;;;;;;5046597;28;20460;-60
2024/03/10 09:41:05;;;;;;;1.10;0.80;;;;;;;;;;5063368;28;20060;-59
2024/03/10 09:43:36;;;;;;;1.20;0.80;;;;;;;;;;5063285;28;20056;-61
2024/03/10 09:46:06;;;;;;;1.50;0.70;;;;;;;;;;5055666;28;20060;-61
2024/03/10 09:48:35;;;;;;;0.90;0.90;;;;;;;;;;5067365;28;20501;-60
2024/03/10 09:51:04;;;;;;;0.70;0.70;;;;;;;;;;5067182;28;20057;-63
2024/03/10 09:53:35;;;;;;;1.30;0.88;;;;;;;;;;5067287;28;20053;-59
2024/03/10 09:56:04;;;;;;;1.52;0.90;;;;;;;;;;5062713;28;20048;-70
2024/03/10 09:58:35;;;;;;;1.45;0.90;;;;;;;;;;5065862;28;20052;-63
2024/03/10 10:01:12;;;;;;;1.88;1.05;;;;;;;;;;5066769;28;20048;-60
2024/03/10 10:03:43;;;;;;;2.50;1.33;;;;;;;;;;5062346;28;20049;-67
2024/03/10 10:06:13;;;;;;;4.05;1.20;;;;;;;;;;5060643;28;20053;-65
2024/03/10 10:08:42;;;;;;;2.40;1.30;;;;;;;;;;5057862;28;20114;-65
2024/03/10 10:11:12;;;;;;;1.85;1.20;;;;;;;;;;5065819;28;20052;-66
2024/03/10 10:13:42;;;;;;;1.25;0.90;;;;;;;;;;5066649;28;20049;-62
2024/03/10 10:16:14;;;;;;;1.27;0.90;;;;;;;;;;5057503;28;20047;-62
2024/03/10 10:18:42;;;;;;;1.83;1.10;;;;;;;;;;5058338;28;20048;-64
2024/03/10 10:21:24;;;;;;;1.58;0.80;;;;;;;;;;5060680;28;20117;-65
2024/03/10 10:23:54;;;;;;;1.15;0.77;;;;;;;;;;5064831;28;20044;-63
2024/03/10 10:26:22;;;;;;;1.15;0.93;;;;;;;;;;5065370;28;20049;-62
2024/03/10 10:29:06;;;;;;;1.23;1.00;;;;;;;;;;5067196;28;20506;-64
2024/03/10 10:31:37;;;;;;;1.23;0.90;;;;;;;;;;5065512;28;20049;-64
2024/03/10 10:34:06;;;;;;;1.13;0.82;;;;;;;;;;5067672;28;20044;-63
2024/03/10 10:36:35;;;;;;;1.20;1.00;;;;;;;;;;5066419;28;20056;-63
2024/03/10 10:39:08;;;;;;;1.95;0.82;;;;;;;;;;5067417;28;20056;-65
2024/03/10 10:41:37;;;;;;;2.30;1.48;;;;;;;;;;5064778;28;20040;-64
2024/03/10 10:44:06;;;;;;;1.33;1.15;;;;;;;;;;5066954;28;20056;-63
2024/03/10 10:46:38;;;;;;;1.50;1.40;;;;;;;;;;5062728;28;20424;-63
2024/03/10 10:49:11;;;;;;;2.83;1.30;;;;;;;;;;5067623;28;20051;-64
2024/03/10 10:51:39;;;;;;;1.50;1.10;;;;;;;;;;5067114;28;20048;-63
2024/03/10 10:54:11;;;;;;;3.60;1.48;;;;;;;;;;5066394;28;20102;-71
2024/03/10 10:56:40;;;;;;;1.63;1.30;;;;;;;;;;5054847;28;20105;-66
2024/03/10 10:59:13;;;;;;;2.03;1.23;;;;;;;;;;5065747;28;20580;-64
2024/03/10 11:01:43;;;;;;;1.90;1.50;;;;;;;;;;5066032;28;20135;-63
2024/03/10 11:04:14;;;;;;;1.35;1.25;;;;;;;;;;5065822;28;20055;-67
2024/03/10 11:06:44;;;;;;;1.63;1.20;;;;;;;;;;5063397;28;20056;-65
2024/03/10 11:09:15;;;;;;;2.55;1.65;;;;;;;;;;5064875;28;20068;-65
2024/03/10 11:11:48;;;;;;;1.73;1.35;;;;;;;;;;5067704;28;20119;-62
2024/03/10 11:14:21;;;;;;;2.33;1.33;;;;;;;;;;5063869;28;20056;-63
2024/03/10 11:16:52;;;;;;;1.67;1.10;;;;;;;;;;5063881;28;20533;-63
2024/03/10 11:19:22;;;;;;;2.10;1.30;;;;;;;;;;5066648;28;20044;-64
2024/03/10 11:21:51;;;;;;;0.90;0.88;;;;;;;;;;5069038;28;20051;-63
2024/03/10 11:24:21;;;;;;;1.90;1.30;;;;;;;;;;5067075;28;20056;-61
2024/03/10 11:26:50;;;;;;;1.92;1.02;;;;;;;;;;5069474;28;20054;-64
2024/03/10 11:29:26;;;;;;;1.45;1.10;;;;;;;;;;5050223;28;20045;-64
2024/03/10 11:31:57;;;;;;;1.55;1.02;;;;;;;;;;5045318;28;20069;-63
2024/03/10 11:34:26;;;;;;;2.20;1.08;;;;;;;;;;5041470;28;20486;-62
2024/03/10 11:36:56;;;;;;;1.52;1.20;;;;;;;;;;5036938;28;20056;-64
2024/03/10 11:39:25;;;;;;;1.13;1.00;;;;;;;;;;5044616;28;20060;-62
2024/03/10 11:41:53;;;;;;;1.85;1.23;;;;;;;;;;5047491;28;20137;-63
2024/03/10 11:44:22;;;;;;;1.15;1.05;;;;;;;;;;5044958;28;20061;-62
2024/03/10 11:46:51;;;;;;;1.23;0.90;;;;;;;;;;5047701;28;20097;-62
2024/03/10 11:49:21;;;;;;;1.48;0.90;;;;;;;;;;5043002;28;20065;-62
2024/03/10 11:51:49;;;;;;;2.65;1.13;;;;;;;;;;5042100;28;20099;-65
2024/03/10 11:54:18;;;;;;;2.50;1.10;;;;;;;;;;5040553;28;20045;-63
2024/03/10 11:56:51;;;;;;;1.63;1.10;;;;;;;;;;5042665;28;20261;-61
2024/03/10 11:59:19;;;;;;;1.42;1.10;;;;;;;;;;5046687;28;20083;-62
2024/03/10 12:01:48;;;;;;;1.35;1.15;;;;;;;;;;5040817;28;20049;-62
2024/03/10 12:04:17;;;;;;;1.38;1.13;;;;;;;;;;5046431;28;20044;-65
2024/03/10 12:06:46;;;;;;;0.98;0.88;;;;;;;;;;5036530;28;20498;-65
2024/03/10 12:09:20;;;;;;;1.30;1.00;;;;;;;;;;5042872;28;20099;-64
2024/03/10 12:11:50;;;;;;;1.42;1.00;;;;;;;;;;5044497;28;20498;-63
2024/03/10 12:14:21;;;;;;;1.45;0.90;;;;;;;;;;5043092;28;20049;-62
2024/03/10 12:16:49;;;;;;;1.15;0.85;;;;;;;;;;5043013;28;20049;-63
2024/03/10 12:19:19;;;;;;;1.00;0.70;;;;;;;;;;5046897;28;20095;-60
2024/03/10 12:21:49;;;;;;;0.98;0.80;;;;;;;;;;5047287;28;20084;-59
2024/03/10 12:24:17;;;;;;;0.85;0.73;;;;;;;;;;5039221;28;20494;-61
2024/03/10 12:26:46;;;;;;;0.60;0.60;;;;;;;;;;5038422;28;20136;-59
2024/03/10 12:29:20;;;;;;;0.75;0.70;;;;;;;;;;5044861;28;20071;-61
2024/03/10 12:31:49;;;;;;;1.05;0.60;;;;;;;;;;5040392;28;20271;-60
2024/03/10 12:34:22;;;;;;;0.80;0.65;;;;;;;;;;5050836;28;20045;-59
2024/03/10 12:36:51;;;;;;;0.63;0.60;;;;;;;;;;5049551;28;20072;-59
2024/03/10 12:39:22;;;;;;;1.05;0.50;;;;;;;;;;5038610;28;20049;-62
2024/03/10 12:41:51;;;;;;;0.57;0.57;;;;;;;;;;5045266;28;20045;-62
2024/03/10 12:44:20;;;;;;;1.65;0.30;;;;;;;;;;5046058;28;20407;-62
2024/03/10 12:46:48;;;;;;;0.30;0.30;;;;;;;;;;5036022;28;20486;-58
2024/03/10 12:49:17;;;;;;;0.30;0.30;;;;;;;;;;5032261;28;20199;-58
2024/03/10 12:51:45;;;;;;;0.30;0.30;;;;;;;;;;5032587;28;20046;-60
2024/03/10 12:54:15;;;;;;;0.30;0.30;;;;;;;;;;5039972;28;20132;-61
2024/03/10 12:56:43;;;;;;;0.30;0.30;;;;;;;;;;5044711;28;20476;-61
2024/03/10 12:59:13;;;;;;;0.30;0.30;;;;;;;;;;5038771;28;20515;-64
2024/03/10 13:01:41;;;;;;;0.30;0.30;;;;;;;;;;5044507;28;20041;-59
2024/03/10 13:04:10;;;;;;;0.40;0.40;;;;;;;;;;5047346;28;20127;-60
2024/03/10 13:06:40;;;;;;;0.32;0.32;;;;;;;;;;5041399;28;20099;-60
2024/03/10 13:09:09;;;;;;;0.30;0.30;;;;;;;;;;5040968;28;20041;-61
2024/03/10 13:11:39;;;;;;;0.38;0.38;;;;;;;;;;5054558;28;20075;-59
2024/03/10 13:14:08;;;;;;;0.30;0.30;;;;;;;;;;5044684;28;20055;-62
2024/03/10 13:16:37;;;;;;;1.05;0.35;;;;;;;;;;5046192;28;20073;-60
2024/03/10 13:19:10;;;;;;;0.77;0.50;;;;;;;;;;5051853;28;20056;-61
2024/03/10 13:21:39;;;;;;;0.30;0.30;;;;;;;;;;5070471;28;20048;-62
2024/03/10 13:24:08;;;;;;;0.30;0.30;;;;;;;;;;5066832;28;20060;-64
2024/03/10 13:26:36;;;;;;;0.43;0.40;;;;;;;;;;5068269;28;20462;-58
2024/03/10 13:29:06;;;;;;;0.77;0.40;;;;;;;;;;5060762;28;20118;-59
2024/03/10 13:31:37;;;;;;;1.40;0.30;;;;;;;;;;5058752;28;20552;-60
2024/03/10 13:34:05;;;;;;;2.50;0.50;;;;;;;;;;5064528;28;20090;-59
2024/03/10 13:36:34;;;;;;;0.38;0.38;;;;;;;;;;5063458;28;20076;-59
2024/03/10 13:39:03;;;;;;;0.30;0.30;;;;;;;;;;5062552;28;20045;-59
2024/03/10 13:41:32;;;;;;;0.30;0.30;;;;;;;;;;5069953;28;20068;-62
2024/03/10 13:44:02;;;;;;;0.30;0.30;;;;;;;;;;5068170;28;20072;-63
2024/03/10 13:46:32;;;;;;;0.30;0.30;;;;;;;;;;5061133;28;20041;-60
2024/03/10 13:49:00;;;;;;;1.40;0.30;;;;;;;;;;5062370;28;20041;-59
2024/03/10 13:51:29;;;;;;;0.40;0.40;;;;;;;;;;5067498;28;20045;-59
2024/03/10 13:53:58;;;;;;;0.30;0.30;;;;;;;;;;5069854;28;20463;-61
2024/03/10 13:56:26;;;;;;;0.20;0.20;;;;;;;;;;5064672;28;20037;-61
2024/03/10 13:58:55;;;;;;;0.47;0.30;;;;;;;;;;5059520;28;20154;-59
2024/03/10 14:01:24;;;;;;;0.43;0.30;;;;;;;;;;5062931;28;20494;-61
2024/03/10 14:03:54;;;;;;;1.25;0.50;;;;;;;;;;5064017;28;20040;-59
2024/03/10 14:06:24;;;;;;;1.02;0.40;;;;;;;;;;5058254;28;20053;-62
2024/03/10 14:08:54;;;;;;;0.82;0.30;;;;;;;;;;5066761;28;20746;-61
2024/03/10 14:11:23;;;;;;;0.70;0.55;;;;;;;;;;5062725;28;20452;-60
2024/03/10 14:13:52;;;;;;;0.47;0.47;;;;;;;;;;5062327;28;20054;-59
2024/03/10 14:16:21;;;;;;;0.43;0.40;;;;;;;;;;5066059;28;20053;-59
2024/03/10 14:18:50;;;;;;;0.40;0.40;;;;;;;;;;5061011;28;20133;-60
2024/03/10 14:21:20;;;;;;;0.50;0.50;;;;;;;;;;5053309;28;20045;-65
2024/03/10 14:23:48;;;;;;;0.40;0.30;;;;;;;;;;5055809;28;20056;-60
2024/03/10 14:26:18;;;;;;;0.40;0.40;;;;;;;;;;5068903;28;20132;-61
2024/03/10 14:28:47;;;;;;;0.40;0.40;;;;;;;;;;5068236;28;20091;-60
2024/03/10 14:31:17;;;;;;;1.80;0.70;;;;;;;;;;5062876;28;20041;-60
2024/03/10 14:33:45;;;;;;;1.23;0.60;;;;;;;;;;5059930;28;20048;-63
2024/03/10 14:36:14;;;;;;;1.70;0.70;;;;;;;;;;5061693;28;20052;-60
2024/03/10 14:38:44;;;;;;;1.30;0.65;;;;;;;;;;5072227;28;20097;-59
2024/03/10 14:41:13;;;;;;;0.80;0.63;;;;;;;;;;5083232;28;20102;-58
2024/03/10 14:43:43;;;;;;;1.55;0.95;;;;;;;;;;5058059;28;20139;-62
2024/03/10 14:46:13;;;;;;;0.85;0.68;;;;;;;;;;5079736;28;20505;-62
2024/03/10 14:48:43;;;;;;;0.50;0.50;;;;;;;;;;5076300;28;20044;-61
2024/03/10 14:51:12;;;;;;;0.93;0.73;;;;;;;;;;5070078;28;20033;-62
2024/03/10 14:53:40;;;;;;;1.42;0.63;;;;;;;;;;5066237;28;20049;-60
2024/03/10 14:56:11;;;;;;;0.68;0.40;;;;;;;;;;5060150;28;20059;-59
2024/03/10 14:58:40;;;;;;;1.92;0.40;;;;;;;;;;5055017;28;20049;-65
2024/03/10 15:01:11;;;;;;;0.50;0.40;;;;;;;;;;5057632;28;20457;-59
2024/03/10 15:03:56;;;;;;;0.30;0.30;;;;;;;;;;5060304;28;20045;-60
2024/03/10 15:06:27;;;;;;;0.50;0.40;;;;;;;;;;5057945;28;20056;-59
2024/03/10 15:08:56;;;;;;;0.47;0.40;;;;;;;;;;5055307;28;20516;-60
2024/03/10 15:11:26;;;;;;;0.32;0.32;;;;;;;;;;5055075;28;20495;-60
2024/03/10 15:13:54;;;;;;;0.73;0.60;;;;;;;;;;5060507;28;20045;-60
2024/03/10 15:16:25;;;;;;;0.40;0.40;;;;;;;;;;5065600;28;20052;-58
2024/03/10 15:18:53;;;;;;;1.13;0.50;;;;;;;;;;5063763;28;20075;-60
2024/03/10 15:21:22;;;;;;;0.40;0.40;;;;;;;;;;5070058;28;20053;-58